Time;durP1;ratioP1;P1;durP2;ratioP2;P2;SDS_P1;SDS_P2;PMS_P1;PMS_P2;Temp;Humidity;BMP_temperature;BMP_pressure;BME280_temperature;BME280_humidity;BME280_pressure;Samples;Min_cycle;Max_cycle;Signal;HPM_P1;HPM_P2
2023/07/17 00:00:17;;;;;;;6.78;3.75;;;21.00;99.90;;;;;;5017772;28;20030;-77
2023/07/17 00:02:44;;;;;;;5.85;3.50;;;20.90;99.90;;;;;;5016235;28;20014;-79
2023/07/17 00:05:10;;;;;;;7.70;3.72;;;20.90;99.90;;;;;;5017714;28;20431;-77
2023/07/17 00:07:37;;;;;;;9.38;3.75;;;20.80;99.90;;;;;;5017306;28;20018;-78
2023/07/17 00:10:06;;;;;;;8.43;4.38;;;20.80;99.90;;;;;;5017628;28;20025;-78
2023/07/17 00:12:32;;;;;;;9.80;3.75;;;20.80;99.90;;;;;;5017196;28;20029;-78
2023/07/17 00:14:58;;;;;;;9.18;3.85;;;20.70;99.90;;;;;;5017393;28;20021;-78
2023/07/17 00:17:23;;;;;;;7.95;3.55;;;20.70;99.90;;;;;;5017201;28;20513;-78
2023/07/17 00:19:56;;;;;;;8.73;3.88;;;20.70;99.90;;;;;;5017339;28;20029;-77
2023/07/17 00:22:24;;;;;;;9.32;4.22;;;20.60;99.90;;;;;;5017285;28;20056;-78
2023/07/17 00:24:53;;;;;;;7.75;3.85;;;20.60;99.90;;;;;;5017517;28;20042;-78
2023/07/17 00:27:19;;;;;;;8.75;4.53;;;20.50;99.90;;;;;;5016961;28;20054;-78
2023/07/17 00:29:45;;;;;;;9.90;4.50;;;20.50;99.90;;;;;;5017208;28;20049;-77
2023/07/17 00:32:12;;;;;;;7.15;4.25;;;20.40;99.90;;;;;;5017243;28;20390;-78
2023/07/17 00:34:41;;;;;;;8.15;4.10;;;20.40;99.90;;;;;;5017207;28;20033;-78
2023/07/17 00:37:07;;;;;;;9.35;3.85;;;20.30;99.90;;;;;;5017180;28;20076;-78
2023/07/17 00:39:33;;;;;;;8.15;4.45;;;20.30;99.90;;;;;;5017220;28;20029;-78
2023/07/17 00:42:01;;;;;;;8.95;3.65;;;20.40;99.90;;;;;;5016850;28;20046;-77
2023/07/17 00:44:27;;;;;;;6.80;4.43;;;20.30;99.90;;;;;;5027382;28;20045;-77
2023/07/17 00:46:54;;;;;;;8.25;3.80;;;20.30;99.90;;;;;;5005138;28;20018;-78
2023/07/17 00:49:21;;;;;;;8.68;4.80;;;20.30;99.90;;;;;;5015682;28;20034;-78
2023/07/17 00:51:47;;;;;;;8.55;4.40;;;20.20;99.90;;;;;;5020887;28;20400;-78
2023/07/17 00:54:16;;;;;;;6.75;4.13;;;20.10;99.90;;;;;;5022471;28;20139;-77
2023/07/17 00:56:44;;;;;;;8.23;4.60;;;20.10;99.90;;;;;;5016977;28;20035;-78
2023/07/17 00:59:11;;;;;;;10.38;4.47;;;20.10;99.90;;;;;;5015261;28;20025;-77
2023/07/17 01:01:36;;;;;;;11.15;4.22;;;20.00;99.90;;;;;;5017261;28;20022;-77
2023/07/17 01:04:05;;;;;;;7.95;4.05;;;20.00;99.90;;;;;;5016851;28;20486;-78
2023/07/17 01:06:31;;;;;;;9.57;4.82;;;19.90;99.90;;;;;;5017135;28;20022;-78
2023/07/17 01:09:00;;;;;;;11.98;4.40;;;19.80;99.90;;;;;;5016630;28;20026;-77
2023/07/17 01:11:25;;;;;;;7.57;4.00;;;19.80;99.90;;;;;;5020824;28;20018;-77
2023/07/17 01:13:51;;;;;;;7.88;4.40;;;19.70;99.90;;;;;;5020471;28;20084;-77
2023/07/17 01:16:17;;;;;;;9.38;4.85;;;19.70;99.90;;;;;;5019380;28;20189;-78
2023/07/17 01:18:43;;;;;;;10.38;4.72;;;19.60;99.90;;;;;;5020656;28;20077;-77
2023/07/17 01:21:13;;;;;;;10.48;4.80;;;19.60;99.90;;;;;;5019448;28;20025;-77
2023/07/17 01:23:40;;;;;;;11.85;5.38;;;19.60;99.90;;;;;;5020377;28;20033;-78
2023/07/17 01:26:16;;;;;;;11.32;5.60;;;19.50;99.90;;;;;;5020517;28;20028;-77
2023/07/17 01:28:43;;;;;;;10.50;5.78;;;19.40;99.90;;;;;;5018167;28;20037;-78
2023/07/17 01:31:10;;;;;;;11.25;5.80;;;19.40;99.90;;;;;;5019323;28;20033;-77
2023/07/17 01:33:35;;;;;;;8.77;5.15;;;19.40;99.90;;;;;;5020351;28;20101;-78
2023/07/17 01:36:05;;;;;;;9.32;4.80;;;19.30;99.90;;;;;;5020341;28;20053;-78
2023/07/17 01:38:31;;;;;;;9.93;6.07;;;19.30;99.90;;;;;;5020120;28;20068;-78
2023/07/17 01:40:57;;;;;;;10.27;6.22;;;19.20;99.90;;;;;;5020322;28;20030;-76
2023/07/17 01:43:22;;;;;;;13.15;5.38;;;19.20;99.90;;;;;;5022373;28;20021;-78
2023/07/17 01:45:48;;;;;;;7.55;5.28;;;19.10;99.90;;;;;;5028066;28;20037;-78
2023/07/17 01:48:17;;;;;;;8.57;5.68;;;19.10;99.90;;;;;;5018445;28;20034;-78
2023/07/17 01:50:45;;;;;;;11.55;5.53;;;19.00;99.90;;;;;;5020157;28;20021;-78
2023/07/17 01:53:10;;;;;;;10.30;5.97;;;19.00;99.90;;;;;;5029348;28;20457;-78
2023/07/17 01:55:36;;;;;;;11.65;6.47;;;18.90;99.90;;;;;;5019619;28;20072;-78
2023/07/17 01:58:02;;;;;;;8.27;5.38;;;18.90;99.90;;;;;;5005909;28;20080;-79
2023/07/17 02:00:28;;;;;;;12.55;6.13;;;18.80;99.90;;;;;;5005057;28;20117;-78
2023/07/17 02:02:53;;;;;;;12.50;6.82;;;18.80;99.90;;;;;;5006159;28;20030;-78
2023/07/17 02:05:20;;;;;;;13.20;6.70;;;18.70;99.90;;;;;;5019947;28;20397;-78
2023/07/17 02:07:46;;;;;;;13.50;7.32;;;18.70;99.90;;;;;;5019286;28;20389;-78
2023/07/17 02:10:12;;;;;;;10.68;5.90;;;18.70;99.90;;;;;;5019718;28;20068;-78
2023/07/17 02:12:38;;;;;;;10.13;6.35;;;18.60;99.90;;;;;;5019101;28;20072;-79
2023/07/17 02:15:05;;;;;;;10.32;7.43;;;18.60;99.90;;;;;;5019239;28;20029;-78
2023/07/17 02:17:31;;;;;;;14.88;7.57;;;18.60;99.90;;;;;;5018052;28;20392;-78
2023/07/17 02:19:57;;;;;;;12.73;6.35;;;18.50;99.90;;;;;;5018313;28;20050;-77
2023/07/17 02:22:22;;;;;;;12.35;6.53;;;18.50;99.90;;;;;;5017141;28;20018;-77
2023/07/17 02:24:48;;;;;;;15.65;7.28;;;18.40;99.90;;;;;;5019564;28;20041;-78
2023/07/17 02:27:14;;;;;;;11.15;6.35;;;18.40;99.90;;;;;;5017698;28;20449;-77
2023/07/17 02:29:39;;;;;;;13.45;6.45;;;18.40;99.90;;;;;;5019470;28;20549;-78
2023/07/17 02:32:06;;;;;;;9.52;6.18;;;18.40;99.90;;;;;;5018938;28;20097;-78
2023/07/17 02:34:31;;;;;;;12.43;7.05;;;18.40;99.90;;;;;;5019239;28;20026;-78
2023/07/17 02:36:57;;;;;;;11.35;6.65;;;18.40;99.90;;;;;;5018985;28;20025;-78
2023/07/17 02:39:23;;;;;;;12.68;7.25;;;18.40;99.90;;;;;;5019221;28;20026;-78
2023/07/17 02:41:48;;;;;;;12.50;6.75;;;18.30;99.90;;;;;;5018660;28;20024;-79
2023/07/17 02:44:14;;;;;;;16.70;7.40;;;18.30;99.90;;;;;;5028584;28;20064;-79
2023/07/17 02:46:41;;;;;;;11.13;6.95;;;18.30;99.90;;;;;;5019208;28;20580;-79
2023/07/17 02:49:09;;;;;;;10.63;8.15;;;18.30;99.90;;;;;;5019062;28;20026;-78
2023/07/17 02:51:34;;;;;;;11.73;7.72;;;18.20;99.90;;;;;;5019541;28;20046;-78
2023/07/17 02:54:00;;;;;;;15.32;8.00;;;18.20;99.90;;;;;;5025998;28;20029;-78
2023/07/17 02:56:26;;;;;;;11.68;7.45;;;18.20;99.90;;;;;;5018500;28;20018;-78
2023/07/17 02:58:55;;;;;;;12.20;6.80;;;18.20;99.90;;;;;;5018790;28;20050;-77
2023/07/17 03:01:20;;;;;;;9.82;8.00;;;18.10;99.90;;;;;;5017109;28;20499;-78
2023/07/17 03:03:46;;;;;;;11.23;7.65;;;18.10;99.90;;;;;;5018506;28;20100;-79
2023/07/17 03:06:12;;;;;;;14.32;8.23;;;18.10;99.90;;;;;;5017537;28;20022;-77
2023/07/17 03:08:38;;;;;;;11.68;7.70;;;18.00;99.90;;;;;;5018312;28;20036;-78
2023/07/17 03:11:04;;;;;;;13.55;7.97;;;18.00;99.90;;;;;;5018441;28;20028;-79
2023/07/17 03:13:30;;;;;;;14.50;7.47;;;18.00;99.90;;;;;;5018102;28;20088;-79
2023/07/17 03:16:00;;;;;;;13.13;8.38;;;17.80;99.90;;;;;;5017778;28;20022;-80
2023/07/17 03:18:26;;;;;;;13.80;8.70;;;17.80;99.90;;;;;;5018399;28;20068;-79
2023/07/17 03:20:52;;;;;;;13.20;8.35;;;17.80;99.90;;;;;;5018003;28;20026;-79
2023/07/17 03:23:18;;;;;;;14.63;8.43;;;17.80;99.90;;;;;;5017184;28;20033;-79
2023/07/17 03:25:43;;;;;;;9.25;7.90;;;17.70;99.90;;;;;;5018199;28;20022;-79
2023/07/17 03:28:10;;;;;;;11.05;8.00;;;17.70;99.90;;;;;;5017726;28;20037;-78
2023/07/17 03:30:35;;;;;;;13.75;8.50;;;17.70;99.90;;;;;;5016822;28;20517;-78
2023/07/17 03:33:01;;;;;;;12.98;8.73;;;17.70;99.90;;;;;;5017986;28;20072;-78
2023/07/17 03:35:27;;;;;;;9.82;7.75;;;17.60;99.90;;;;;;5016468;28;20030;-78
2023/07/17 03:37:53;;;;;;;17.90;9.10;;;17.60;99.90;;;;;;5017937;28;20026;-77
2023/07/17 03:40:18;;;;;;;13.68;8.73;;;17.60;99.90;;;;;;5017920;28;20033;-78
2023/07/17 03:42:44;;;;;;;17.50;8.15;;;17.60;99.90;;;;;;5016544;28;20029;-78
2023/07/17 03:45:10;;;;;;;10.52;7.35;;;17.50;99.90;;;;;;5027770;28;20053;-78
2023/07/17 03:47:36;;;;;;;16.48;8.18;;;17.50;99.90;;;;;;5017816;28;20474;-78
2023/07/17 03:50:02;;;;;;;12.70;7.50;;;17.50;99.90;;;;;;5016252;28;20426;-79
2023/07/17 03:52:28;;;;;;;12.88;8.35;;;17.50;99.90;;;;;;5027238;28;20029;-78
2023/07/17 03:54:53;;;;;;;15.25;8.60;;;17.40;99.90;;;;;;5016311;28;20028;-78
2023/07/17 03:57:20;;;;;;;16.35;8.35;;;17.40;99.90;;;;;;5017609;28;20033;-78
2023/07/17 03:59:53;;;;;;;15.80;8.82;;;17.30;99.90;;;;;;5015571;28;20072;-77
2023/07/17 04:02:20;;;;;;;13.80;7.75;;;17.30;99.90;;;;;;5017673;28;20029;-78
2023/07/17 04:04:46;;;;;;;13.65;8.82;;;17.30;99.90;;;;;;5005779;28;20021;-78
2023/07/17 04:07:12;;;;;;;14.02;8.35;;;17.30;99.90;;;;;;5017596;28;20387;-78
2023/07/17 04:09:38;;;;;;;13.82;9.02;;;17.30;99.90;;;;;;5016054;28;20049;-78
2023/07/17 04:12:05;;;;;;;10.90;7.82;;;17.30;99.90;;;;;;5015643;28;20065;-78
2023/07/17 04:14:32;;;;;;;12.00;7.60;;;17.30;99.90;;;;;;5015928;28;20022;-80
2023/07/17 04:16:58;;;;;;;13.40;8.50;;;17.20;99.90;;;;;;5017323;28;20034;-80
2023/07/17 04:19:24;;;;;;;12.00;7.50;;;17.20;99.90;;;;;;5016256;28;20090;-80
2023/07/17 04:21:49;;;;;;;11.38;7.00;;;17.10;99.90;;;;;;5017274;28;20029;-80
2023/07/17 04:24:15;;;;;;;13.85;7.78;;;17.10;99.90;;;;;;5017346;28;20040;-80
2023/07/17 04:26:41;;;;;;;14.55;8.15;;;17.10;99.90;;;;;;5016732;28;20025;-80
2023/07/17 04:29:06;;;;;;;13.95;8.68;;;17.10;99.90;;;;;;5016912;28;20148;-79
2023/07/17 04:31:32;;;;;;;12.60;7.68;;;17.10;99.90;;;;;;5015900;28;20164;-79
2023/07/17 04:33:58;;;;;;;11.35;6.95;;;17.10;99.90;;;;;;5005432;28;20014;-79
2023/07/17 04:36:24;;;;;;;14.20;8.82;;;17.10;99.90;;;;;;5015811;28;20022;-80
2023/07/17 04:38:49;;;;;;;10.75;8.40;;;17.10;99.90;;;;;;5015823;28;20026;-80
2023/07/17 04:41:16;;;;;;;14.23;8.60;;;17.10;99.90;;;;;;5016964;28;20034;-80
2023/07/17 04:43:42;;;;;;;16.20;7.85;;;17.10;99.90;;;;;;5022000;28;20041;-79
2023/07/17 04:46:07;;;;;;;16.38;9.75;;;17.10;99.90;;;;;;5026428;28;20033;-80
2023/07/17 04:48:33;;;;;;;13.45;7.88;;;17.10;99.90;;;;;;5021253;28;20064;-80
2023/07/17 04:50:59;;;;;;;12.75;8.52;;;17.10;99.90;;;;;;5021181;28;20033;-80
2023/07/17 04:53:25;;;;;;;18.50;7.88;;;17.10;99.90;;;;;;5030530;28;20034;-79
2023/07/17 04:55:50;;;;;;;10.85;7.68;;;17.10;99.90;;;;;;5020805;28;20030;-79
2023/07/17 04:58:19;;;;;;;16.00;8.90;;;17.20;99.90;;;;;;5020563;28;20100;-80
2023/07/17 05:00:46;;;;;;;14.18;8.52;;;17.20;99.90;;;;;;5020999;28;20018;-79
2023/07/17 05:03:15;;;;;;;16.92;7.90;;;17.30;99.90;;;;;;5007641;28;20017;-79
2023/07/17 05:05:46;;;;;;;17.17;9.05;;;17.30;99.90;;;;;;5019479;28;20034;-80
2023/07/17 05:08:12;;;;;;;;;;;17.40;99.90;;;;;;5021546;28;20053;-80
2023/07/17 05:10:37;;;;;;;16.17;7.85;;;17.50;99.90;;;;;;5019337;28;19905;-79
2023/07/17 05:13:03;;;;;;;12.48;7.35;;;17.50;99.90;;;;;;5020799;28;20026;-80
2023/07/17 05:15:29;;;;;;;17.40;7.97;;;17.60;99.90;;;;;;5020119;28;20026;-79
2023/07/17 05:17:54;;;;;;;15.52;8.32;;;17.70;99.90;;;;;;5020980;28;20071;-80
2023/07/17 05:20:20;;;;;;;16.30;8.77;;;17.80;99.90;;;;;;5020219;28;20036;-80
2023/07/17 05:22:45;;;;;;;12.20;7.55;;;17.80;99.90;;;;;;5018164;28;20022;-80
2023/07/17 05:25:11;;;;;;;16.00;8.57;;;17.90;99.90;;;;;;5020249;28;20401;-80
2023/07/17 05:27:37;;;;;;;13.68;8.40;;;17.90;99.90;;;;;;5018867;28;20510;-79
2023/07/17 05:30:03;;;;;;;10.68;7.68;;;18.00;99.90;;;;;;5020177;28;20078;-79
2023/07/17 05:32:29;;;;;;;15.07;8.70;;;18.10;99.90;;;;;;5020805;28;20544;-80
2023/07/17 05:34:56;;;;;;;13.32;7.63;;;18.20;99.90;;;;;;5019875;28;20475;-81
2023/07/17 05:37:22;;;;;;;15.00;8.13;;;18.20;99.90;;;;;;5020406;28;20068;-80
2023/07/17 05:39:47;;;;;;;15.07;7.47;;;18.30;99.90;;;;;;5020005;28;20014;-80
2023/07/17 05:42:13;;;;;;;14.77;7.95;;;18.40;99.90;;;;;;5020024;28;20046;-81
2023/07/17 05:44:39;;;;;;;13.43;7.97;;;18.50;99.90;;;;;;5028662;28;20080;-80
2023/07/17 05:47:05;;;;;;;13.23;7.90;;;18.50;99.90;;;;;;5020292;28;20030;-80
2023/07/17 05:49:31;;;;;;;16.92;7.95;;;18.60;99.90;;;;;;5020104;28;20109;-79
2023/07/17 05:51:57;;;;;;;11.07;7.50;;;18.70;99.90;;;;;;5023726;28;20049;-79
2023/07/17 05:54:22;;;;;;;12.27;7.80;;;18.80;99.90;;;;;;5023857;28;20021;-79
2023/07/17 05:56:48;;;;;;;10.63;7.22;;;18.80;99.90;;;;;;5019650;28;20467;-79
2023/07/17 05:59:14;;;;;;;12.52;8.18;;;18.90;99.90;;;;;;5018402;28;20029;-80
2023/07/17 06:01:39;;;;;;;15.95;7.60;;;18.90;99.90;;;;;;5019900;28;20096;-80
2023/07/17 06:04:06;;;;;;;10.75;7.30;;;19.00;99.90;;;;;;5019802;28;20022;-80
2023/07/17 06:06:32;;;;;;;12.02;7.45;;;19.00;99.90;;;;;;5019766;28;20076;-80
2023/07/17 06:09:01;;;;;;;17.20;6.88;;;19.00;99.90;;;;;;5019721;28;20022;-80
2023/07/17 06:11:26;;;;;;;12.73;8.05;;;19.00;99.90;;;;;;5018053;28;20025;-80
2023/07/17 06:13:52;;;;;;;19.25;7.28;;;19.10;99.90;;;;;;5019518;28;20075;-80
2023/07/17 06:16:18;;;;;;;14.38;7.15;;;19.20;99.90;;;;;;5018285;28;20026;-80
2023/07/17 06:18:43;;;;;;;12.80;6.38;;;19.30;99.90;;;;;;5019476;28;20014;-80
2023/07/17 06:21:09;;;;;;;12.65;7.00;;;19.30;99.90;;;;;;5019584;28;20029;-79
2023/07/17 06:23:34;;;;;;;12.35;7.00;;;19.30;99.90;;;;;;5019495;28;20026;-79
2023/07/17 06:26:00;;;;;;;10.98;6.93;;;19.40;99.90;;;;;;5017968;28;20033;-80
2023/07/17 06:28:27;;;;;;;14.88;6.45;;;19.50;99.90;;;;;;5018983;28;20032;-79
2023/07/17 06:30:53;;;;;;;17.38;8.23;;;19.60;99.90;;;;;;5019324;28;20030;-81
2023/07/17 06:33:19;;;;;;;11.40;6.65;;;19.60;99.90;;;;;;5019351;28;20022;-80
2023/07/17 06:35:45;;;;;;;11.38;6.30;;;19.70;99.90;;;;;;5017629;28;20030;-81
2023/07/17 06:38:11;;;;;;;12.35;6.22;;;19.70;99.90;;;;;;5017928;28;20089;-79
2023/07/17 06:40:38;;;;;;;18.35;6.80;;;19.70;99.90;;;;;;5019127;28;20537;-80
2023/07/17 06:43:03;;;;;;;12.63;6.55;;;19.90;99.90;;;;;;5018855;28;20534;-79
2023/07/17 06:45:30;;;;;;;12.95;7.03;;;19.90;99.90;;;;;;5024293;28;20188;-79
2023/07/17 06:47:56;;;;;;;9.43;6.72;;;20.00;99.90;;;;;;5018899;28;20018;-79
2023/07/17 06:50:21;;;;;;;14.95;6.95;;;20.00;99.90;;;;;;5017680;28;20026;-81
2023/07/17 06:52:47;;;;;;;12.57;6.10;;;20.10;99.90;;;;;;5022842;28;20029;-79
2023/07/17 06:55:13;;;;;;;15.52;6.72;;;20.10;99.90;;;;;;5018399;28;20041;-81
2023/07/17 06:57:38;;;;;;;14.88;6.80;;;20.20;99.90;;;;;;5018746;28;20014;-79
2023/07/17 07:00:06;;;;;;;9.63;6.60;;;20.30;99.90;;;;;;5018428;28;20505;-81
2023/07/17 07:02:32;;;;;;;13.18;6.97;;;20.40;99.90;;;;;;5017482;28;20101;-79
2023/07/17 07:04:58;;;;;;;10.27;6.50;;;20.50;99.90;;;;;;5017140;28;20058;-80
2023/07/17 07:07:23;;;;;;;14.63;7.63;;;20.60;99.90;;;;;;5019065;28;20018;-79
2023/07/17 07:09:49;;;;;;;11.13;7.18;;;20.80;99.90;;;;;;5018620;28;20041;-81
2023/07/17 07:12:15;;;;;;;10.52;6.68;;;20.90;99.90;;;;;;5018347;28;20030;-81
2023/07/17 07:14:41;;;;;;;17.77;7.30;;;20.90;99.90;;;;;;5018228;28;20022;-80
2023/07/17 07:17:07;;;;;;;13.25;7.82;;;21.00;99.90;;;;;;5017325;28;20105;-80
2023/07/17 07:19:33;;;;;;;12.60;7.22;;;21.20;99.90;;;;;;5018347;28;20029;-79
2023/07/17 07:21:59;;;;;;;14.80;7.43;;;21.20;99.90;;;;;;5017009;28;20018;-78
2023/07/17 07:24:25;;;;;;;12.80;6.60;;;21.40;99.90;;;;;;5018155;28;20058;-78
2023/07/17 07:26:51;;;;;;;11.15;6.85;;;21.60;99.90;;;;;;5007079;28;20053;-79
2023/07/17 07:29:17;;;;;;;12.23;6.50;;;21.70;99.90;;;;;;5012371;28;20559;-76
2023/07/17 07:31:42;;;;;;;11.77;6.55;;;21.70;99.90;;;;;;5015018;28;20513;-79
2023/07/17 07:34:08;;;;;;;10.75;6.95;;;21.80;99.90;;;;;;5013627;28;20018;-78
2023/07/17 07:36:33;;;;;;;9.60;6.43;;;21.90;99.90;;;;;;5015749;28;20115;-80
2023/07/17 07:38:59;;;;;;;11.68;7.00;;;22.00;99.90;;;;;;5015376;28;20030;-79
2023/07/17 07:41:25;;;;;;;12.07;5.88;;;22.10;99.90;;;;;;5016589;28;20176;-79
2023/07/17 07:43:50;;;;;;;9.85;7.00;;;22.00;99.90;;;;;;5019225;28;20048;-78
2023/07/17 07:46:16;;;;;;;9.98;6.45;;;22.00;99.90;;;;;;5014518;28;20038;-80
2023/07/17 07:48:42;;;;;;;8.73;6.10;;;22.10;99.90;;;;;;5017598;28;20025;-79
2023/07/17 07:51:08;;;;;;;13.98;5.75;;;22.00;99.90;;;;;;5016532;28;20026;-79
2023/07/17 07:53:33;;;;;;;14.52;6.63;;;22.10;99.90;;;;;;5017435;28;20022;-78
2023/07/17 07:56:00;;;;;;;12.50;6.30;;;22.20;99.90;;;;;;5016864;28;20109;-80
2023/07/17 07:58:26;;;;;;;13.45;6.13;;;22.20;99.90;;;;;;5017067;28;20109;-80
2023/07/17 08:00:53;;;;;;;9.27;5.80;;;22.20;99.90;;;;;;5014603;28;20136;-80
2023/07/17 08:03:18;;;;;;;11.93;6.40;;;22.30;99.90;;;;;;5014086;28;20018;-76
2023/07/17 08:05:44;;;;;;;10.63;6.10;;;22.40;99.90;;;;;;5014800;28;20029;-76
2023/07/17 08:08:10;;;;;;;18.23;6.30;;;22.60;99.90;;;;;;5019094;28;20022;-79
2023/07/17 08:10:37;;;;;;;17.48;7.13;;;22.70;99.90;;;;;;5015342;28;20026;-78
2023/07/17 08:13:04;;;;;;;10.65;6.43;;;22.70;99.90;;;;;;5016176;28;20025;-77
2023/07/17 08:15:29;;;;;;;10.90;6.15;;;22.80;99.90;;;;;;5013528;28;20564;-77
2023/07/17 08:17:55;;;;;;;15.52;5.93;;;22.90;99.90;;;;;;5016416;28;20030;-77
2023/07/17 08:20:21;;;;;;;10.85;6.03;;;23.10;99.90;;;;;;5014083;28;20411;-77
2023/07/17 08:22:48;;;;;;;12.70;6.38;;;23.30;99.90;;;;;;5015279;28;20021;-76
2023/07/17 08:25:14;;;;;;;10.00;6.75;;;23.50;99.90;;;;;;5017873;28;20025;-76
2023/07/17 08:27:39;;;;;;;11.80;5.47;;;23.80;99.90;;;;;;5016761;28;20026;-76
2023/07/17 08:30:06;;;;;;;11.55;6.22;;;23.80;99.90;;;;;;5015069;28;20032;-77
2023/07/17 08:32:31;;;;;;;9.57;5.75;;;23.70;99.90;;;;;;5016528;28;20080;-75
2023/07/17 08:34:57;;;;;;;11.55;5.82;;;23.60;99.90;;;;;;5011471;28;20045;-76
2023/07/17 08:37:23;;;;;;;9.98;6.35;;;23.60;99.90;;;;;;5013986;28;20104;-76
2023/07/17 08:39:48;;;;;;;10.77;5.53;;;23.70;99.90;;;;;;5013902;28;20029;-76
2023/07/17 08:42:14;;;;;;;13.82;6.57;;;23.80;99.90;;;;;;5014710;28;20030;-77
2023/07/17 08:44:40;;;;;;;8.88;6.18;;;24.00;99.90;;;;;;5016058;28;20065;-77
2023/07/17 08:47:08;;;;;;;10.75;6.57;;;24.10;99.90;;;;;;5014706;28;20105;-79
2023/07/17 08:49:35;;;;;;;10.07;5.47;;;24.10;99.90;;;;;;5014271;28;20029;-77
2023/07/17 08:52:03;;;;;;;12.52;5.50;;;24.00;99.90;;;;;;5012676;28;20029;-76
2023/07/17 08:54:28;;;;;;;10.65;6.13;;;24.10;99.90;;;;;;5014182;28;20063;-76
2023/07/17 08:56:55;;;;;;;12.70;6.00;;;24.10;99.90;;;;;;5015626;28;20101;-77
2023/07/17 08:59:21;;;;;;;12.68;5.97;;;24.20;99.90;;;;;;5013516;28;20037;-75
2023/07/17 09:01:51;;;;;;;9.43;5.97;;;24.20;99.90;;;;;;5015648;28;20098;-75
2023/07/17 09:04:17;;;;;;;12.83;5.60;;;24.40;99.90;;;;;;5015993;28;20022;-76
2023/07/17 09:06:43;;;;;;;8.88;5.10;;;24.40;99.90;;;;;;5015585;28;20033;-76
2023/07/17 09:09:11;;;;;;;11.40;4.95;;;24.60;99.90;;;;;;5015129;28;20054;-76
2023/07/17 09:11:37;;;;;;;9.63;4.53;;;25.00;99.90;;;;;;5015533;28;20097;-76
2023/07/17 09:14:03;;;;;;;8.50;4.32;;;25.20;99.90;;;;;;5015775;28;20053;-76
2023/07/17 09:16:29;;;;;;;8.07;3.70;;;25.50;99.90;;;;;;5014395;28;20029;-76
2023/07/17 09:18:54;;;;;;;7.50;3.92;;;25.60;99.90;;;;;;5013598;28;20112;-78
2023/07/17 09:21:23;;;;;;;7.30;4.43;;;25.70;99.90;;;;;;5030463;28;20026;-77
2023/07/17 09:23:52;;;;;;;10.48;4.10;;;25.70;99.80;;;;;;5017180;28;20064;-77
2023/07/17 09:26:19;;;;;;;12.60;4.28;;;25.60;99.90;;;;;;5015314;28;20077;-77
2023/07/17 09:28:49;;;;;;;7.88;4.03;;;25.80;99.90;;;;;;5013798;28;20030;-78
2023/07/17 09:31:28;;;;;;;11.82;4.35;;;25.90;99.90;;;;;;5017424;28;20041;-78
2023/07/17 09:33:55;;;;;;;9.23;4.18;;;26.00;99.90;;;;;;5018455;28;20113;-78
2023/07/17 09:36:21;;;;;;;11.32;4.45;;;26.10;99.80;;;;;;5019020;28;20089;-78
2023/07/17 09:38:56;;;;;;;7.85;4.15;;;26.30;99.50;;;;;;5019016;28;20022;-78
2023/07/17 09:41:28;;;;;;;9.75;3.80;;;26.30;99.90;;;;;;5017818;28;20480;-78
2023/07/17 09:44:01;;;;;;;9.15;3.85;;;26.40;99.90;;;;;;5019036;28;20172;-79
2023/07/17 09:46:29;;;;;;;10.00;3.67;;;26.40;98.00;;;;;;5018018;28;20018;-78
2023/07/17 09:48:55;;;;;;;7.63;4.28;;;26.50;98.60;;;;;;5018240;28;20040;-77
2023/07/17 09:51:22;;;;;;;9.15;4.85;;;26.40;97.70;;;;;;5019248;28;20030;-78
2023/07/17 09:53:48;;;;;;;9.07;4.07;;;26.40;99.80;;;;;;5035305;28;20029;-78
2023/07/17 09:56:19;;;;;;;8.38;4.47;;;26.60;99.10;;;;;;5017230;28;20040;-77
2023/07/17 09:58:53;;;;;;;5.10;3.53;;;26.50;97.70;;;;;;5018441;28;20030;-78
2023/07/17 10:01:22;;;;;;;11.73;4.60;;;26.30;98.00;;;;;;5018860;28;20109;-77
2023/07/17 10:03:49;;;;;;;9.10;4.10;;;26.30;98.60;;;;;;5018788;28;20047;-78
2023/07/17 10:06:17;;;;;;;7.97;4.22;;;26.30;97.80;;;;;;5017460;28;20034;-79
2023/07/17 10:08:48;;;;;;;11.52;4.55;;;26.50;99.70;;;;;;5018206;28;20022;-79
2023/07/17 10:11:18;;;;;;;5.43;3.40;;;26.50;97.80;;;;;;5018163;28;20109;-79
2023/07/17 10:13:45;;;;;;;6.97;3.88;;;26.60;98.00;;;;;;5017279;28;20125;-79
2023/07/17 10:16:14;;;;;;;8.15;4.35;;;26.70;96.90;;;;;;5017297;28;20176;-78
2023/07/17 10:18:51;;;;;;;6.53;2.70;;;26.80;97.00;;;;;;5014484;28;20053;-80
2023/07/17 10:21:18;;;;;;;5.68;3.30;;;27.10;97.30;;;;;;5033284;28;20025;-80
2023/07/17 10:23:46;;;;;;;4.55;2.92;;;27.10;97.20;;;;;;5014850;28;20041;-79
2023/07/17 10:26:14;;;;;;;8.88;2.80;;;27.40;97.40;;;;;;5018220;28;20018;-79
2023/07/17 10:28:41;;;;;;;6.18;2.95;;;27.50;95.60;;;;;;5017906;28;20030;-80
2023/07/17 10:31:18;;;;;;;9.25;3.03;;;27.50;93.50;;;;;;5017926;28;20026;-79
2023/07/17 10:33:48;;;;;;;5.65;2.78;;;27.60;94.40;;;;;;5015474;28;20371;-79
2023/07/17 10:36:14;;;;;;;6.30;2.85;;;27.40;94.20;;;;;;5016839;28;20057;-77
2023/07/17 10:38:42;;;;;;;5.82;2.70;;;27.40;94.50;;;;;;5017955;28;20092;-81
2023/07/17 10:41:13;;;;;;;7.03;3.47;;;27.40;94.50;;;;;;5017413;28;20018;-79
2023/07/17 10:44:03;;;;;;;7.40;3.20;;;27.50;95.90;;;;;;5017688;28;20044;-78
2023/07/17 10:46:30;;;;;;;7.32;3.40;;;27.60;96.60;;;;;;5016307;28;20116;-77
2023/07/17 10:49:08;;;;;;;9.65;3.55;;;27.70;94.50;;;;;;5017520;28;20079;-78
2023/07/17 10:51:36;;;;;;;8.25;3.58;;;27.70;94.90;;;;;;5019360;28;20745;-79
2023/07/17 10:54:02;;;;;;;6.55;3.22;;;27.70;93.70;;;;;;5031888;28;20060;-79
2023/07/17 10:56:30;;;;;;;7.70;3.53;;;27.80;95.40;;;;;;5013454;28;21737;-79
2023/07/17 10:58:56;;;;;;;5.88;3.08;;;27.80;93.30;;;;;;5020065;28;20496;-79
2023/07/17 11:01:22;;;;;;;7.18;3.08;;;27.60;95.30;;;;;;5016282;28;20022;-79
2023/07/17 11:03:48;;;;;;;5.55;2.75;;;27.80;95.70;;;;;;5017530;28;20028;-78
2023/07/17 11:06:15;;;;;;;8.93;3.05;;;27.90;95.00;;;;;;5017640;28;20741;-79
2023/07/17 11:08:42;;;;;;;14.85;3.47;;;28.00;94.50;;;;;;5017346;28;20029;-79
2023/07/17 11:11:09;;;;;;;9.60;3.13;;;28.00;94.20;;;;;;5014882;28;20029;-79
2023/07/17 11:13:35;;;;;;;5.28;2.58;;;28.20;96.00;;;;;;5016594;28;20029;-77
2023/07/17 11:16:08;;;;;;;8.85;3.85;;;28.10;94.70;;;;;;5017345;28;20032;-78
2023/07/17 11:19:03;;;;;;;5.88;3.00;;;28.10;94.90;;;;;;5017180;28;20101;-78
2023/07/17 11:21:29;;;;;;;8.80;3.50;;;28.30;94.80;;;;;;5016263;28;20014;-77
2023/07/17 11:23:56;;;;;;;4.95;2.90;;;28.30;94.00;;;;;;5017971;28;20079;-78
2023/07/17 11:26:32;;;;;;;6.25;3.33;;;28.30;94.70;;;;;;5014685;28;20034;-77
2023/07/17 11:28:59;;;;;;;7.35;3.22;;;28.40;94.10;;;;;;5015838;28;20033;-77
2023/07/17 11:31:27;;;;;;;9.15;3.58;;;28.20;92.10;;;;;;5027717;28;20032;-78
2023/07/17 11:33:58;;;;;;;6.35;3.40;;;28.20;94.10;;;;;;5016575;28;20032;-78
2023/07/17 11:36:25;;;;;;;9.23;3.53;;;28.30;93.50;;;;;;5015442;28;20030;-77
2023/07/17 11:38:55;;;;;;;5.85;3.22;;;28.20;93.30;;;;;;5015769;28;20021;-78
2023/07/17 11:41:20;;;;;;;8.02;3.53;;;28.20;94.10;;;;;;5013915;28;20402;-77
2023/07/17 11:43:56;;;;;;;5.75;2.85;;;28.30;93.00;;;;;;5016750;28;20053;-78
2023/07/17 11:46:23;;;;;;;9.27;2.70;;;28.30;94.20;;;;;;5014263;28;20463;-78
2023/07/17 11:48:52;;;;;;;4.75;2.70;;;28.50;93.90;;;;;;5014636;28;20041;-77
2023/07/17 11:51:23;;;;;;;6.45;2.95;;;28.60;92.20;;;;;;5022268;28;20112;-78
2023/07/17 11:53:56;;;;;;;5.80;2.97;;;28.50;92.60;;;;;;5013337;28;20022;-78
2023/07/17 11:56:33;;;;;;;5.55;3.00;;;28.30;92.50;;;;;;5016417;28;20032;-78
2023/07/17 11:58:59;;;;;;;4.32;2.60;;;28.60;93.80;;;;;;5013339;28;20030;-78
2023/07/17 12:01:25;;;;;;;6.20;2.95;;;28.40;92.80;;;;;;5015945;28;20026;-78
2023/07/17 12:03:51;;;;;;;5.57;3.22;;;28.50;94.30;;;;;;5016018;28;20018;-78
2023/07/17 12:06:16;;;;;;;6.68;3.63;;;28.70;92.70;;;;;;5016318;28;20041;-78
2023/07/17 12:08:43;;;;;;;7.60;3.45;;;28.90;94.10;;;;;;5016483;28;20026;-78
2023/07/17 12:11:09;;;;;;;6.85;2.92;;;29.00;92.80;;;;;;5017727;28;20581;-79
2023/07/17 12:13:35;;;;;;;7.43;4.10;;;29.10;91.50;;;;;;5020337;28;20449;-78
2023/07/17 12:16:00;;;;;;;6.80;2.90;;;29.10;92.20;;;;;;5016089;28;20029;-77
2023/07/17 12:18:26;;;;;;;5.82;2.45;;;29.30;92.40;;;;;;5020194;28;20054;-77
2023/07/17 12:20:52;;;;;;;5.47;2.60;;;29.50;92.70;;;;;;5014812;28;20470;-78
2023/07/17 12:23:18;;;;;;;6.75;3.17;;;29.50;90.50;;;;;;5018560;28;20088;-78
2023/07/17 12:25:45;;;;;;;7.03;2.78;;;29.40;90.70;;;;;;5019120;28;20524;-78
2023/07/17 12:28:11;;;;;;;5.82;2.47;;;29.40;91.50;;;;;;5015961;28;20024;-78
2023/07/17 12:30:36;;;;;;;7.38;2.90;;;29.50;90.90;;;;;;5015338;28;20053;-77
2023/07/17 12:33:02;;;;;;;8.00;2.88;;;29.70;90.60;;;;;;5015447;28;20073;-77
2023/07/17 12:35:28;;;;;;;7.20;3.00;;;29.60;88.10;;;;;;5013443;28;20033;-77
2023/07/17 12:37:54;;;;;;;5.45;2.70;;;29.60;89.30;;;;;;5014841;28;20022;-78